LLIB/RPN METAR and TAF weather

Enter ICAO airport designator
Station Type Date Time Source
LLIB METAR 2020/03/31 13:50 UTC NOAA

LLIB 311350Z 19006KT 120V250 CAVOK 25/08 Q1006


Station Type Date Time Source
LLIB Decoded METAR 2020/03/31 13:50 UTC NOAA

Galilee / Pina, Israel (LLIB) 32-58-48N 035-34-12E
Mar 31, 2020 - 09:50 AM EDT / 2020.03.31 1350 UTC
Wind: from the S (190 degrees) at 7 MPH (6 KT) (direction variable):0
Visibility: greater than 7 mile(s):0
Temperature: 77 F (25 C)
Dew Point: 46 F (8 C)
Relative Humidity: 33%
Pressure (altimeter): 29.71 in. Hg (1006 hPa)
ob: LLIB 311350Z 19006KT 120V250 CAVOK 25/08 Q1006
cycle: 14

Station Type Date Time Source
LLIB TAF 2020/03/31 12:36 UTC NOAA

TAF
AMD LLIB 311134Z 3112/0112 VRB03KT CAVOK
BECMG 3115/3117 25008KT
BECMG 3121/3123 20005KT 5000 -RA BR SCT005 BKN010
BECMG 0106/0108 27012KT 9999 NSW BKN025 TX24/3112Z TN12/0103Z

Example: see airport list